Portada
METAR-TAF:

METAR-TAF

Aeroports :

Pequín, Xina

Aeroport Internacional de Pequín

latitud: 39-56N, longitud: 116-17E, altitud: 55 m

Observació

L'informe es va fer fa 45 minuts, a les 10:30 UTC
Vent 8 kt del Oest amb ràfegues de 17 kt
Temperatura 6°C
Humitat 12%
Pressió 1026 hPa
Visibilitat 10 km o més
sense núvols per sota de 1500 mi sense presència de cumulonimbus.

METAR: ZBAA 201030Z 27004G09MPS CAVOK 06/M21 Q1026 NOSIG

Hora: 19:15 (11:15 UTC)

Pronòstic

L'informe es va fer fa 7 hores i 55 minuts, a les 03:20 UTC
Pronòstic vàlid del 20 a les 06 UTC al 21 a les 06 UTC
Vent 8 kt del Nord/Nord-Oest
Visibilitat 10 km o més
sense núvols per sota de 1500 mi sense presència de cumulonimbus.

TAF: ZBAA 200320Z 2006/2106 33004MPS CAVOK TX08/2007Z TNM04/21Z

Observacions i pronòstics meteorològics de més de 4000 aeroports (METAR i TAF).

Les estacions disponibles són els punts grocs i vermells al mapa.

Posi el ratolí al punt desitjat per veure el nom de l'estació.

Feu clic per veure les observacions i els pronòstics meteorològics.

Per canviar el mapa: feu clic els botons verds amb una creu de color negre per apropar; al botó verd amb un guió per allunyar la imatge; o en les fletxes verdes per a mapes adjacents.


METAR-TAF: